Time;durP1;ratioP1;P1;durP2;ratioP2;P2;SDS_P1;SDS_P2;PMS_P1;PMS_P2;Temp;Humidity;BMP_temperature;BMP_pressure;BME280_temperature;BME280_humidity;BME280_pressure;Samples;Min_cycle;Max_cycle;Signal;HPM_P1;HPM_P2
2022/06/10 00:00:41;;;;;;;7.30;6.60;;;;;;;;;;6160815;23;20012;-83
2022/06/10 00:03:07;;;;;;;6.78;6.05;;;;;;;;;;6160759;23;20005;-83
2022/06/10 00:05:36;;;;;;;6.75;5.80;;;;;;;;;;6160360;23;20016;-87
2022/06/10 00:08:13;;;;;;;6.60;5.95;;;;;;;;;;6160672;23;20032;-83
2022/06/10 00:10:40;;;;;;;6.57;5.97;;;;;;;;;;6160485;23;20438;-85
2022/06/10 00:13:06;;;;;;;7.32;6.10;;;;;;;;;;6160712;23;20097;-86
2022/06/10 00:15:33;;;;;;;8.02;5.70;;;;;;;;;;6160540;23;20374;-84
2022/06/10 00:17:59;;;;;;;7.13;6.50;;;;;;;;;;6186576;23;20009;-84
2022/06/10 00:20:27;;;;;;;7.43;6.20;;;;;;;;;;6160970;23;20009;-87
2022/06/10 00:22:54;;;;;;;9.23;6.30;;;;;;;;;;6160506;23;20113;-85
2022/06/10 00:25:21;;;;;;;12.50;6.25;;;;;;;;;;6160718;23;20020;-83
2022/06/10 00:27:47;;;;;;;6.95;6.15;;;;;;;;;;6186744;23;20128;-86
2022/06/10 00:30:14;;;;;;;7.38;5.75;;;;;;;;;;6160407;23;20012;-83
2022/06/10 00:32:40;;;;;;;8.57;5.80;;;;;;;;;;6160633;23;20032;-84
2022/06/10 00:35:06;;;;;;;6.85;6.15;;;;;;;;;;6186576;23;20001;-82
2022/06/10 00:37:33;;;;;;;9.80;6.10;;;;;;;;;;6186519;23;20445;-83
2022/06/10 00:39:59;;;;;;;5.95;5.35;;;;;;;;;;6160635;23;20080;-82
2022/06/10 00:42:25;;;;;;;6.40;5.75;;;;;;;;;;6160434;23;20442;-86
2022/06/10 00:44:53;;;;;;;6.20;5.30;;;;;;;;;;6160023;23;20005;-83
2022/06/10 00:47:19;;;;;;;7.15;5.82;;;;;;;;;;6160505;23;20008;-84
2022/06/10 00:49:50;;;;;;;8.32;6.25;;;;;;;;;;6186626;23;20059;-87
2022/06/10 00:52:37;;;;;;;8.52;5.50;;;;;;;;;;6160489;23;20009;-82
2022/06/10 00:55:05;;;;;;;7.68;5.18;;;;;;;;;;6159874;23;20080;-83
2022/06/10 00:57:34;;;;;;;9.50;6.97;;;;;;;;;;6160522;23;20001;-85
2022/06/10 01:00:03;;;;;;;7.07;6.38;;;;;;;;;;6159876;23;20009;-85
2022/06/10 01:02:31;;;;;;;6.35;5.75;;;;;;;;;;6160315;23;20024;-82
2022/06/10 01:04:58;;;;;;;8.95;6.03;;;;;;;;;;6160378;23;20005;-82
2022/06/10 01:07:27;;;;;;;5.72;5.22;;;;;;;;;;6160164;23;20001;-82
2022/06/10 01:09:54;;;;;;;7.85;6.03;;;;;;;;;;6160243;23;20013;-83
2022/06/10 01:12:33;;;;;;;7.22;5.90;;;;;;;;;;6160537;23;20096;-83
2022/06/10 01:15:03;;;;;;;6.38;5.18;;;;;;;;;;6160257;23;20005;-86
2022/06/10 01:17:35;;;;;;;6.22;5.63;;;;;;;;;;6160038;23;20039;-86
2022/06/10 01:20:08;;;;;;;7.07;5.15;;;;;;;;;;6159995;23;20020;-86
2022/06/10 01:22:47;;;;;;;6.50;5.30;;;;;;;;;;6160223;23;20005;-87
2022/06/10 01:25:25;;;;;;;6.80;5.15;;;;;;;;;;6160153;23;20009;-86
2022/06/10 01:28:10;;;;;;;6.65;5.85;;;;;;;;;;6159809;23;20109;-82
2022/06/10 01:30:54;;;;;;;5.38;4.85;;;;;;;;;;6160219;23;20040;-82
2022/06/10 01:33:35;;;;;;;8.80;6.00;;;;;;;;;;6159986;23;20005;-83
2022/06/10 01:36:05;;;;;;;5.85;5.25;;;;;;;;;;6184981;23;20011;-85
2022/06/10 01:38:47;;;;;;;7.00;5.30;;;;;;;;;;6159858;23;20009;-85
2022/06/10 01:41:22;;;;;;;5.97;4.88;;;;;;;;;;6159934;23;20029;-86
2022/06/10 01:43:48;;;;;;;7.15;5.30;;;;;;;;;;6159808;23;20013;-84
2022/06/10 01:46:20;;;;;;;8.05;5.55;;;;;;;;;;6159973;23;20001;-85
2022/06/10 01:48:50;;;;;;;5.40;4.90;;;;;;;;;;6159987;23;20013;-82
2022/06/10 01:51:32;;;;;;;9.38;4.85;;;;;;;;;;6159673;23;20013;-83
2022/06/10 01:54:00;;;;;;;5.63;4.88;;;;;;;;;;6160177;23;20009;-88
2022/06/10 01:56:32;;;;;;;6.55;4.63;;;;;;;;;;6164175;23;20001;-86
2022/06/10 01:59:25;;;;;;;6.15;4.45;;;;;;;;;;6186337;23;20009;-85
2022/06/10 02:01:58;;;;;;;7.38;4.95;;;;;;;;;;6183119;23;20074;-87
2022/06/10 02:04:24;;;;;;;;;;;;;;;;;;6160374;23;20032;-83
2022/06/10 02:06:53;;;;;;;5.47;4.22;;;;;;;;;;6184391;23;19911;-83
2022/06/10 02:09:22;;;;;;;5.50;4.85;;;;;;;;;;6186104;23;20021;-83
2022/06/10 02:11:52;;;;;;;5.00;4.32;;;;;;;;;;6159774;23;20016;-83
2022/06/10 02:14:21;;;;;;;4.95;4.45;;;;;;;;;;6159806;23;20009;-82
2022/06/10 02:16:49;;;;;;;5.10;4.60;;;;;;;;;;6160008;23;19997;-87
2022/06/10 02:19:23;;;;;;;6.40;5.53;;;;;;;;;;6159236;23;20025;-86
2022/06/10 02:22:00;;;;;;;7.80;5.28;;;;;;;;;;6159884;23;20427;-85
2022/06/10 02:24:36;;;;;;;5.82;5.22;;;;;;;;;;6186266;23;20427;-81
2022/06/10 02:27:06;;;;;;;6.30;5.10;;;;;;;;;;6160105;23;20009;-84
2022/06/10 02:29:35;;;;;;;6.10;5.28;;;;;;;;;;6159801;23;20103;-85
2022/06/10 02:32:01;;;;;;;9.98;5.47;;;;;;;;;;6186044;23;20201;-82
2022/06/10 02:34:31;;;;;;;6.80;6.10;;;;;;;;;;6161068;23;20598;-86
2022/06/10 02:37:07;;;;;;;5.85;5.25;;;;;;;;;;6188126;23;20025;-85
2022/06/10 02:39:35;;;;;;;5.93;5.32;;;;;;;;;;6161649;23;20016;-83
2022/06/10 02:42:01;;;;;;;6.60;5.68;;;;;;;;;;6161707;23;20073;-85
2022/06/10 02:44:30;;;;;;;8.25;6.03;;;;;;;;;;6161212;23;20339;-86
2022/06/10 02:47:12;;;;;;;6.95;6.05;;;;;;;;;;6161528;23;20012;-83
2022/06/10 02:49:38;;;;;;;5.90;5.40;;;;;;;;;;6162853;23;20016;-87
2022/06/10 02:52:04;;;;;;;10.43;6.50;;;;;;;;;;6187937;23;20025;-84
2022/06/10 02:54:32;;;;;;;11.48;6.40;;;;;;;;;;6161481;23;20025;-87
2022/06/10 02:57:02;;;;;;;7.03;5.97;;;;;;;;;;6161640;23;20016;-83
2022/06/10 03:02:34;;;;;;;6.72;6.00;;;;;;;;;;6187994;23;20060;-83
2022/06/10 03:05:12;;;;;;;6.70;6.00;;;;;;;;;;6187317;23;19997;-86
2022/06/10 03:07:45;;;;;;;6.05;5.40;;;;;;;;;;6187495;23;20009;-86
2022/06/10 03:10:17;;;;;;;7.18;5.28;;;;;;;;;;6161386;23;20012;-84
2022/06/10 03:12:58;;;;;;;5.78;4.82;;;;;;;;;;6161437;23;20091;-84
2022/06/10 03:15:36;;;;;;;7.20;5.25;;;;;;;;;;6161440;23;20458;-84
2022/06/10 03:18:26;;;;;;;7.50;5.25;;;;;;;;;;6187369;23;20020;-81
2022/06/10 03:20:58;;;;;;;6.50;5.70;;;;;;;;;;6161189;23;20434;-81
2022/06/10 03:23:28;;;;;;;7.10;5.55;;;;;;;;;;6161634;23;20012;-86
2022/06/10 03:25:56;;;;;;;6.30;5.30;;;;;;;;;;6187361;23;20028;-87
2022/06/10 03:28:43;;;;;;;7.40;5.40;;;;;;;;;;6160790;23;20023;-84
2022/06/10 03:31:14;;;;;;;8.45;5.70;;;;;;;;;;6188096;23;20024;-87
2022/06/10 03:33:40;;;;;;;6.07;5.50;;;;;;;;;;6161145;23;20431;-81
2022/06/10 03:36:09;;;;;;;6.85;5.35;;;;;;;;;;6160906;23;20009;-83
2022/06/10 03:38:39;;;;;;;8.40;6.15;;;;;;;;;;6160912;23;20001;-88
2022/06/10 03:41:06;;;;;;;7.10;5.50;;;;;;;;;;6161311;23;20083;-83
2022/06/10 03:43:34;;;;;;;6.93;6.20;;;;;;;;;;6161109;23;20493;-88
2022/06/10 03:46:02;;;;;;;6.80;6.10;;;;;;;;;;6161008;23;20028;-83
2022/06/10 03:48:29;;;;;;;7.07;5.65;;;;;;;;;;6160540;23;20020;-81
2022/06/10 03:50:56;;;;;;;8.35;6.57;;;;;;;;;;6161228;23;20005;-83
2022/06/10 03:53:23;;;;;;;6.70;5.60;;;;;;;;;;6187059;23;20001;-82
2022/06/10 03:55:50;;;;;;;7.43;6.10;;;;;;;;;;6161274;23;20479;-84
2022/06/10 03:58:16;;;;;;;8.23;6.18;;;;;;;;;;6161346;23;20008;-83
2022/06/10 04:00:43;;;;;;;7.05;6.43;;;;;;;;;;6187022;23;20024;-83
2022/06/10 04:03:10;;;;;;;12.05;6.38;;;;;;;;;;6186959;23;20001;-88
2022/06/10 04:05:37;;;;;;;7.45;6.10;;;;;;;;;;6187346;23;20016;-84
2022/06/10 04:08:03;;;;;;;8.13;6.78;;;;;;;;;;6160776;23;20320;-87
2022/06/10 04:10:29;;;;;;;8.27;6.80;;;;;;;;;;6160890;23;20016;-81
2022/06/10 04:12:56;;;;;;;9.30;6.47;;;;;;;;;;6160552;23;20088;-81
2022/06/10 04:15:27;;;;;;;7.63;6.45;;;;;;;;;;6160815;23;20005;-85
2022/06/10 04:17:54;;;;;;;8.05;6.68;;;;;;;;;;6160673;23;20019;-84
2022/06/10 04:20:39;;;;;;;7.63;6.93;;;;;;;;;;6160681;23;20339;-82
2022/06/10 04:23:06;;;;;;;8.63;6.32;;;;;;;;;;6160380;23;20001;-86
2022/06/10 04:25:33;;;;;;;7.43;6.60;;;;;;;;;;6160812;23;20009;-88
2022/06/10 04:27:59;;;;;;;6.30;5.70;;;;;;;;;;6160772;23;20013;-84
2022/06/10 04:30:28;;;;;;;7.45;6.22;;;;;;;;;;6187022;23;20001;-86
2022/06/10 04:32:54;;;;;;;7.30;5.70;;;;;;;;;;6160542;23;20085;-85
2022/06/10 04:35:21;;;;;;;9.35;5.85;;;;;;;;;;6160889;23;20016;-81
2022/06/10 04:37:48;;;;;;;7.50;6.22;;;;;;;;;;6160445;23;20445;-85
2022/06/10 04:40:16;;;;;;;7.00;6.28;;;;;;;;;;6160863;23;20352;-86
2022/06/10 04:42:43;;;;;;;7.10;5.63;;;;;;;;;;6160230;23;20005;-87
2022/06/10 04:45:10;;;;;;;7.13;5.65;;;;;;;;;;6160707;23;20012;-85
2022/06/10 04:47:36;;;;;;;7.07;5.80;;;;;;;;;;6160689;23;20007;-82
2022/06/10 04:50:03;;;;;;;8.30;6.00;;;;;;;;;;6160505;23;20013;-86
2022/06/10 04:52:29;;;;;;;7.18;5.57;;;;;;;;;;6160465;23;20009;-83
2022/06/10 04:54:56;;;;;;;9.43;6.25;;;;;;;;;;6160371;23;20089;-86
2022/06/10 04:57:22;;;;;;;7.28;6.00;;;;;;;;;;6160215;23;20008;-85
2022/06/10 04:59:48;;;;;;;6.22;5.63;;;;;;;;;;6186997;23;20012;-85
2022/06/10 05:02:15;;;;;;;6.15;5.25;;;;;;;;;;6160612;23;20423;-87
2022/06/10 05:04:42;;;;;;;7.35;5.63;;;;;;;;;;6160667;23;20339;-86
2022/06/10 05:07:08;;;;;;;9.40;6.15;;;;;;;;;;6159649;23;20005;-86
2022/06/10 05:09:34;;;;;;;6.70;5.93;;;;;;;;;;6186702;23;20075;-85
2022/06/10 05:12:01;;;;;;;7.38;5.50;;;;;;;;;;6160838;23;20087;-81
2022/06/10 05:14:27;;;;;;;9.07;6.15;;;;;;;;;;6161774;23;20005;-82
2022/06/10 05:16:53;;;;;;;6.47;5.65;;;;;;;;;;6160592;23;20013;-87
2022/06/10 05:19:19;;;;;;;7.72;6.45;;;;;;;;;;6159850;23;20016;-84
2022/06/10 05:21:45;;;;;;;7.70;5.85;;;;;;;;;;6158046;23;20312;-80
2022/06/10 05:24:11;;;;;;;7.15;6.05;;;;;;;;;;6185562;23;20001;-81
2022/06/10 05:26:37;;;;;;;8.20;6.35;;;;;;;;;;6160106;23;20011;-83
2022/06/10 05:29:03;;;;;;;7.57;6.00;;;;;;;;;;6159620;23;20017;-79
2022/06/10 05:31:29;;;;;;;7.50;6.55;;;;;;;;;;6159402;23;20001;-82
2022/06/10 05:36:43;;;;;;;7.28;5.85;;;;;;;;;;6185772;23;20346;-82
2022/06/10 05:39:09;;;;;;;6.68;5.80;;;;;;;;;;6183301;23;20001;-84
2022/06/10 05:44:25;;;;;;;10.18;6.28;;;;;;;;;;6185865;23;20075;-87
2022/06/10 05:46:52;;;;;;;7.07;5.38;;;;;;;;;;6159269;23;20084;-82
2022/06/10 05:49:18;;;;;;;6.10;4.97;;;;;;;;;;6158650;23;20016;-80
2022/06/10 05:51:45;;;;;;;6.82;5.18;;;;;;;;;;6185627;23;19997;-81
2022/06/10 05:54:11;;;;;;;8.10;5.25;;;;;;;;;;6158991;23;20005;-82
2022/06/10 05:56:37;;;;;;;7.63;4.53;;;;;;;;;;6159189;23;20342;-83
2022/06/10 05:59:03;;;;;;;6.05;4.85;;;;;;;;;;6159907;23;20009;-84
2022/06/10 06:01:30;;;;;;;9.88;5.03;;;;;;;;;;6159980;23;20009;-86
2022/06/10 06:03:56;;;;;;;5.90;5.07;;;;;;;;;;6159818;23;20001;-84
2022/06/10 06:06:22;;;;;;;6.18;4.78;;;;;;;;;;6159786;23;20037;-84
2022/06/10 06:08:48;;;;;;;6.13;4.78;;;;;;;;;;6160551;23;20021;-84
2022/06/10 06:11:15;;;;;;;8.25;5.38;;;;;;;;;;6188386;23;20008;-84
2022/06/10 06:13:42;;;;;;;6.10;5.20;;;;;;;;;;6162160;23;20012;-84
2022/06/10 06:16:10;;;;;;;5.22;4.65;;;;;;;;;;6161740;23;20055;-83
2022/06/10 06:18:36;;;;;;;7.60;4.70;;;;;;;;;;6161747;23;20025;-86
2022/06/10 06:21:02;;;;;;;8.73;5.32;;;;;;;;;;6161684;23;20398;-84
2022/06/10 06:23:28;;;;;;;8.10;5.63;;;;;;;;;;6161632;23;20342;-82
2022/06/10 06:25:54;;;;;;;8.68;5.18;;;;;;;;;;6161700;23;20005;-83
2022/06/10 06:28:20;;;;;;;8.02;5.40;;;;;;;;;;6161496;23;20119;-88
2022/06/10 06:30:47;;;;;;;8.10;6.28;;;;;;;;;;6161770;23;20430;-82
2022/06/10 06:33:13;;;;;;;8.77;6.30;;;;;;;;;;6164987;23;20013;-84
2022/06/10 06:35:39;;;;;;;9.15;6.15;;;;;;;;;;6161790;23;20009;-83
2022/06/10 06:38:06;;;;;;;11.75;5.50;;;;;;;;;;6161639;23;20457;-83
2022/06/10 06:40:32;;;;;;;9.80;6.22;;;;;;;;;;6161581;23;20435;-86
2022/06/10 06:42:58;;;;;;;8.48;6.05;;;;;;;;;;6161733;23;20338;-87
2022/06/10 06:45:25;;;;;;;10.85;6.70;;;;;;;;;;6161526;23;20094;-88
2022/06/10 06:47:52;;;;;;;11.02;7.78;;;;;;;;;;6161728;23;20023;-90
2022/06/10 06:50:19;;;;;;;7.00;5.88;;;;;;;;;;6162032;23;20009;-84
2022/06/10 06:52:45;;;;;;;7.53;5.82;;;;;;;;;;6160933;23;20059;-82
2022/06/10 06:55:12;;;;;;;8.68;5.88;;;;;;;;;;6161635;23;20031;-84
2022/06/10 06:57:38;;;;;;;7.05;5.00;;;;;;;;;;6162109;23;20004;-84
2022/06/10 07:00:06;;;;;;;10.75;5.13;;;;;;;;;;6162155;23;20016;-86
2022/06/10 07:02:33;;;;;;;6.55;4.10;;;;;;;;;;6161604;23;20005;-84
2022/06/10 07:04:59;;;;;;;8.70;4.10;;;;;;;;;;6160958;23;20338;-84
2022/06/10 07:07:25;;;;;;;4.63;3.50;;;;;;;;;;6160735;23;20427;-87
2022/06/10 07:09:51;;;;;;;7.65;3.80;;;;;;;;;;6160960;23;20458;-84
2022/06/10 07:12:18;;;;;;;5.43;3.97;;;;;;;;;;6161177;23;20005;-85
2022/06/10 07:14:44;;;;;;;6.13;4.32;;;;;;;;;;6165798;23;20044;-89
2022/06/10 07:17:11;;;;;;;5.18;3.58;;;;;;;;;;6160069;23;20013;-83
2022/06/10 07:19:38;;;;;;;7.05;4.25;;;;;;;;;;6186813;23;20013;-93
2022/06/10 07:22:05;;;;;;;7.35;4.20;;;;;;;;;;6160481;23;20012;-83
2022/06/10 07:24:32;;;;;;;6.32;4.28;;;;;;;;;;6160945;23;20485;-82
2022/06/10 07:27:00;;;;;;;11.32;4.85;;;;;;;;;;6160850;23;20063;-83
2022/06/10 07:29:27;;;;;;;9.23;5.45;;;;;;;;;;6186745;23;20019;-86
2022/06/10 07:31:53;;;;;;;7.10;5.05;;;;;;;;;;6161357;23;20334;-87
2022/06/10 07:34:19;;;;;;;8.23;4.55;;;;;;;;;;6161284;23;20033;-90
2022/06/10 07:36:45;;;;;;;5.55;4.93;;;;;;;;;;6161201;23;20415;-88
2022/06/10 07:39:11;;;;;;;7.07;4.93;;;;;;;;;;6186700;23;20462;-88
2022/06/10 07:42:01;;;;;;;6.18;4.68;;;;;;;;;;6160875;23;20514;-83
2022/06/10 07:44:32;;;;;;;6.28;4.88;;;;;;;;;;6186685;23;20446;-83
2022/06/10 07:46:58;;;;;;;10.43;4.80;;;;;;;;;;6160728;23;20003;-86
2022/06/10 07:49:25;;;;;;;6.28;5.00;;;;;;;;;;6160234;23;20075;-83
2022/06/10 07:51:51;;;;;;;6.85;5.03;;;;;;;;;;6160188;23;20021;-85
2022/06/10 07:54:17;;;;;;;7.65;5.20;;;;;;;;;;6161111;23;20016;-83
2022/06/10 07:56:43;;;;;;;6.20;4.97;;;;;;;;;;6188930;23;20004;-82
2022/06/10 07:59:10;;;;;;;6.80;5.13;;;;;;;;;;6159851;23;20092;-82
2022/06/10 08:01:36;;;;;;;6.28;4.70;;;;;;;;;;6161061;23;20001;-87
2022/06/10 08:04:06;;;;;;;5.50;4.85;;;;;;;;;;6160698;23;20009;-88
2022/06/10 08:06:34;;;;;;;6.80;5.07;;;;;;;;;;6160874;23;20059;-86
2022/06/10 08:09:00;;;;;;;7.38;5.15;;;;;;;;;;6160950;23;20027;-88
2022/06/10 08:11:26;;;;;;;6.05;4.97;;;;;;;;;;6161360;23;20067;-88
2022/06/10 08:13:52;;;;;;;7.40;4.95;;;;;;;;;;6161490;23;20028;-86
2022/06/10 08:16:19;;;;;;;5.93;4.72;;;;;;;;;;6187479;23;20001;-89
2022/06/10 08:18:45;;;;;;;7.63;5.20;;;;;;;;;;6160962;23;20535;-87
2022/06/10 08:24:00;;;;;;;6.47;4.68;;;;;;;;;;6187053;23;20531;-87
2022/06/10 08:26:26;;;;;;;8.07;4.60;;;;;;;;;;6160804;23;20080;-87
2022/06/10 08:28:53;;;;;;;6.65;4.45;;;;;;;;;;6186925;23;20043;-86
2022/06/10 08:31:20;;;;;;;8.23;4.60;;;;;;;;;;6160285;23;20005;-90
2022/06/10 08:33:46;;;;;;;7.25;4.60;;;;;;;;;;6160860;23;20009;-86
2022/06/10 08:36:13;;;;;;;5.57;4.18;;;;;;;;;;6159505;23;20089;-76
2022/06/10 08:38:43;;;;;;;5.75;4.45;;;;;;;;;;6159429;23;20394;-75
2022/06/10 08:41:27;;;;;;;4.68;4.03;;;;;;;;;;6185793;23;20377;-76
2022/06/10 08:44:12;;;;;;;7.03;3.92;;;;;;;;;;6185516;23;20001;-77
2022/06/10 08:46:38;;;;;;;8.07;4.63;;;;;;;;;;6158851;23;20009;-76
2022/06/10 08:49:18;;;;;;;4.68;3.88;;;;;;;;;;6185444;23;20009;-76
2022/06/10 08:52:08;;;;;;;5.50;4.03;;;;;;;;;;6185732;23;20375;-75
2022/06/10 08:54:46;;;;;;;6.05;3.80;;;;;;;;;;6176196;23;20096;-76
2022/06/10 08:57:20;;;;;;;6.68;3.78;;;;;;;;;;6185148;23;20075;-75
2022/06/10 08:59:47;;;;;;;7.28;3.90;;;;;;;;;;6159477;23;20063;-76
2022/06/10 09:02:14;;;;;;;7.28;3.88;;;;;;;;;;6160512;23;20015;-86
2022/06/10 09:04:52;;;;;;;4.18;3.47;;;;;;;;;;6160071;23;20055;-86
2022/06/10 09:07:41;;;;;;;4.45;3.55;;;;;;;;;;6184637;23;20013;-86
2022/06/10 09:10:16;;;;;;;5.43;3.90;;;;;;;;;;6176912;23;20020;-84
2022/06/10 09:13:11;;;;;;;5.47;3.70;;;;;;;;;;6160107;23;20032;-86
2022/06/10 09:15:42;;;;;;;5.03;3.95;;;;;;;;;;6146343;23;20031;-79
2022/06/10 09:18:11;;;;;;;4.95;3.20;;;;;;;;;;6160459;23;20500;-87
2022/06/10 09:20:41;;;;;;;4.97;3.72;;;;;;;;;;6186756;23;20005;-86
2022/06/10 09:23:18;;;;;;;5.80;3.72;;;;;;;;;;6185762;23;20007;-84
2022/06/10 09:25:45;;;;;;;4.65;3.50;;;;;;;;;;6160336;23;20028;-86
2022/06/10 09:28:12;;;;;;;5.22;3.33;;;;;;;;;;6160153;23;20052;-81
2022/06/10 09:30:57;;;;;;;6.47;3.53;;;;;;;;;;6160009;23;20035;-84
2022/06/10 09:33:37;;;;;;;5.43;3.78;;;;;;;;;;6159936;23;20024;-89
2022/06/10 09:36:06;;;;;;;4.05;3.33;;;;;;;;;;6160210;23;20020;-85
2022/06/10 09:38:35;;;;;;;6.18;3.72;;;;;;;;;;6160249;23;20001;-83
2022/06/10 09:41:04;;;;;;;5.68;3.75;;;;;;;;;;6160291;23;20347;-84
2022/06/10 09:43:33;;;;;;;6.05;3.72;;;;;;;;;;6159957;23;20032;-84
2022/06/10 09:46:34;;;;;;;6.78;4.07;;;;;;;;;;6160126;23;20140;-88
2022/06/10 09:49:00;;;;;;;5.63;4.00;;;;;;;;;;6041132;23;20019;-85
2022/06/10 09:51:42;;;;;;;4.60;3.35;;;;;;;;;;6162218;23;20005;-83
2022/06/10 09:54:08;;;;;;;4.45;3.55;;;;;;;;;;6160107;23;20012;-81
2022/06/10 09:57:00;;;;;;;4.30;3.60;;;;;;;;;;6159749;23;20013;-85
2022/06/10 09:59:29;;;;;;;7.28;3.47;;;;;;;;;;6161143;23;20418;-82
2022/06/10 10:02:18;;;;;;;6.55;3.45;;;;;;;;;;6159947;23;20001;-87
2022/06/10 10:04:44;;;;;;;4.68;3.13;;;;;;;;;;6160417;23;20005;-81
2022/06/10 10:07:19;;;;;;;4.55;3.30;;;;;;;;;;6160146;23;20001;-87
2022/06/10 10:09:48;;;;;;;4.55;3.20;;;;;;;;;;6159632;23;20070;-88
2022/06/10 10:12:15;;;;;;;5.32;3.38;;;;;;;;;;6159598;23;20007;-89
2022/06/10 10:14:41;;;;;;;4.93;3.10;;;;;;;;;;6186226;23;19997;-86
2022/06/10 10:17:07;;;;;;;7.18;2.78;;;;;;;;;;6186318;23;20423;-80
2022/06/10 10:19:34;;;;;;;5.07;3.10;;;;;;;;;;6159680;23;20017;-81
2022/06/10 10:22:16;;;;;;;5.22;2.80;;;;;;;;;;6159445;23;20015;-81
2022/06/10 10:24:43;;;;;;;5.97;2.83;;;;;;;;;;6159906;23;20035;-89
2022/06/10 10:27:11;;;;;;;5.25;2.92;;;;;;;;;;6159854;23;20033;-80
2022/06/10 10:29:40;;;;;;;3.92;3.13;;;;;;;;;;6185870;23;20013;-94
2022/06/10 10:32:18;;;;;;;4.05;2.78;;;;;;;;;;6159568;23;20006;-80
2022/06/10 10:34:46;;;;;;;4.65;2.92;;;;;;;;;;6159613;23;20016;-86
2022/06/10 10:37:23;;;;;;;5.22;2.85;;;;;;;;;;6186414;23;20039;-91
2022/06/10 10:39:54;;;;;;;5.82;3.28;;;;;;;;;;6186304;23;20008;-90
2022/06/10 10:42:22;;;;;;;5.75;3.08;;;;;;;;;;6159840;23;20059;-81
2022/06/10 10:44:57;;;;;;;7.43;3.10;;;;;;;;;;6159810;23;20009;-92
2022/06/10 10:47:25;;;;;;;7.40;3.33;;;;;;;;;;6160194;23;20009;-86
2022/06/10 10:49:54;;;;;;;3.58;3.10;;;;;;;;;;6159579;23;20020;-84
2022/06/10 10:52:23;;;;;;;4.60;2.70;;;;;;;;;;6159630;23;20001;-90
2022/06/10 10:54:52;;;;;;;5.43;3.15;;;;;;;;;;6187911;23;20005;-92
2022/06/10 10:57:29;;;;;;;4.18;2.88;;;;;;;;;;6187918;23;20011;-93
2022/06/10 11:00:18;;;;;;;4.68;2.78;;;;;;;;;;6161391;23;20005;-77
2022/06/10 11:02:44;;;;;;;6.43;2.88;;;;;;;;;;6145570;23;20008;-75
2022/06/10 11:05:19;;;;;;;3.03;2.53;;;;;;;;;;6186671;23;20051;-78
2022/06/10 11:07:46;;;;;;;4.25;2.88;;;;;;;;;;6161267;23;20012;-78
2022/06/10 11:10:38;;;;;;;7.35;2.60;;;;;;;;;;6160130;23;20024;-88
2022/06/10 11:13:06;;;;;;;5.20;2.88;;;;;;;;;;6155359;23;20005;-78
2022/06/10 11:15:34;;;;;;;5.03;3.00;;;;;;;;;;6160441;23;20043;-84
2022/06/10 11:18:00;;;;;;;3.42;2.70;;;;;;;;;;6160308;23;20013;-78
2022/06/10 11:20:34;;;;;;;4.55;2.80;;;;;;;;;;6161478;23;20347;-87
2022/06/10 11:23:21;;;;;;;5.00;3.22;;;;;;;;;;6161289;23;20036;-86
2022/06/10 11:26:02;;;;;;;5.85;3.00;;;;;;;;;;6162711;23;20326;-86
2022/06/10 11:28:33;;;;;;;6.53;3.28;;;;;;;;;;6161457;23;20088;-91
2022/06/10 11:31:00;;;;;;;4.10;3.15;;;;;;;;;;6161722;23;20009;-79
2022/06/10 11:33:32;;;;;;;4.88;3.08;;;;;;;;;;6160595;23;20009;-85
2022/06/10 11:36:00;;;;;;;6.70;3.60;;;;;;;;;;6161097;23;20344;-84
2022/06/10 11:38:28;;;;;;;6.40;3.33;;;;;;;;;;6161165;23;20008;-86
2022/06/10 11:40:55;;;;;;;12.07;3.38;;;;;;;;;;6161350;23;20032;-93
2022/06/10 11:43:57;;;;;;;5.80;3.25;;;;;;;;;;6162039;23;20001;-91
2022/06/10 11:46:49;;;;;;;5.18;3.00;;;;;;;;;;6044636;23;20006;-89
2022/06/10 11:49:16;;;;;;;3.67;2.90;;;;;;;;;;6157667;23;20072;-93
2022/06/10 11:51:52;;;;;;;5.22;3.40;;;;;;;;;;6163389;23;20001;-85
2022/06/10 11:54:26;;;;;;;3.75;2.90;;;;;;;;;;6161278;23;20020;-95
2022/06/10 11:59:46;;;;;;;4.07;2.92;;;;;;;;;;6199060;23;20337;-87
2022/06/10 12:02:18;;;;;;;4.60;3.08;;;;;;;;;;6166127;23;20084;-95
2022/06/10 12:04:47;;;;;;;4.82;3.00;;;;;;;;;;6161352;23;20064;-93
2022/06/10 12:07:16;;;;;;;6.80;3.05;;;;;;;;;;6160039;23;20009;-93
2022/06/10 12:09:50;;;;;;;9.50;3.28;;;;;;;;;;6161035;23;20017;-92
2022/06/10 12:12:25;;;;;;;3.95;3.10;;;;;;;;;;6161110;23;20445;-93
2022/06/10 12:14:54;;;;;;;6.32;3.10;;;;;;;;;;6160790;23;20009;-91
2022/06/10 12:17:23;;;;;;;5.75;3.03;;;;;;;;;;6160235;23;20009;-92
2022/06/10 12:19:55;;;;;;;8.55;3.38;;;;;;;;;;6186088;23;20486;-88
2022/06/10 12:22:21;;;;;;;4.10;3.10;;;;;;;;;;6161604;23;20514;-93
2022/06/10 12:24:57;;;;;;;4.47;3.00;;;;;;;;;;6161432;23;20458;-93
2022/06/10 12:27:26;;;;;;;6.55;3.45;;;;;;;;;;6161533;23;20040;-90
2022/06/10 12:30:07;;;;;;;4.97;3.38;;;;;;;;;;6160294;23;20040;-92
2022/06/10 12:32:52;;;;;;;6.85;3.03;;;;;;;;;;6186845;23;20001;-92
2022/06/10 12:35:18;;;;;;;17.02;3.53;;;;;;;;;;6160633;23;20328;-92
2022/06/10 12:38:06;;;;;;;5.00;3.17;;;;;;;;;;6160908;23;20005;-91
2022/06/10 12:40:38;;;;;;;4.47;3.08;;;;;;;;;;6160915;23;20005;-86
2022/06/10 12:43:14;;;;;;;4.97;3.23;;;;;;;;;;6160720;23;20009;-87
2022/06/10 12:45:47;;;;;;;11.45;3.65;;;;;;;;;;6160864;23;20232;-90
2022/06/10 12:48:20;;;;;;;5.68;3.35;;;;;;;;;;6160536;23;20017;-94
2022/06/10 12:50:53;;;;;;;8.57;3.25;;;;;;;;;;6160856;23;20009;-94
2022/06/10 12:53:19;;;;;;;;;;;;;;;;;;6160343;23;20031;-92
2022/06/10 12:55:47;;;;;;;5.68;3.17;;;;;;;;;;6193148;23;19900;-94
2022/06/10 12:58:35;;;;;;;7.43;3.72;;;;;;;;;;6160480;23;20056;-92
2022/06/10 13:01:33;;;;;;;6.35;3.53;;;;;;;;;;6160186;23;20009;-90
2022/06/10 13:04:04;;;;;;;5.43;3.40;;;;;;;;;;6177551;23;20009;-87
2022/06/10 13:06:32;;;;;;;5.32;3.35;;;;;;;;;;6159759;23;20007;-89
2022/06/10 13:09:10;;;;;;;6.03;3.63;;;;;;;;;;6165927;23;20017;-91
2022/06/10 13:11:40;;;;;;;6.50;3.25;;;;;;;;;;6210042;23;20447;-89
2022/06/10 13:14:22;;;;;;;4.97;3.10;;;;;;;;;;6210125;23;20005;-94
2022/06/10 13:17:00;;;;;;;5.80;3.35;;;;;;;;;;6210658;23;20032;-88
2022/06/10 13:19:26;;;;;;;5.05;3.85;;;;;;;;;;6183382;23;20021;-86
2022/06/10 13:21:53;;;;;;;7.20;3.25;;;;;;;;;;6161271;23;20005;-91
2022/06/10 13:24:20;;;;;;;4.25;2.92;;;;;;;;;;6180465;23;20009;-86
2022/06/10 13:26:46;;;;;;;5.05;3.03;;;;;;;;;;6180522;23;20094;-86
2022/06/10 13:29:14;;;;;;;4.88;3.05;;;;;;;;;;6180036;23;20018;-85
2022/06/10 13:31:51;;;;;;;4.93;2.80;;;;;;;;;;6180601;23;20074;-91
2022/06/10 13:34:20;;;;;;;7.32;2.95;;;;;;;;;;6180068;23;20010;-92
2022/06/10 13:36:51;;;;;;;5.35;2.90;;;;;;;;;;6180641;23;20378;-91
2022/06/10 13:39:23;;;;;;;6.78;2.83;;;;;;;;;;6156954;23;20001;-92
2022/06/10 13:41:54;;;;;;;5.15;2.80;;;;;;;;;;6180221;23;20064;-92
2022/06/10 13:44:30;;;;;;;4.10;3.00;;;;;;;;;;6180620;23;20009;-91
2022/06/10 13:46:56;;;;;;;5.55;2.85;;;;;;;;;;6155139;23;20012;-92
2022/06/10 13:49:45;;;;;;;4.57;2.97;;;;;;;;;;6160439;23;20013;-91
2022/06/10 13:52:27;;;;;;;5.47;2.70;;;;;;;;;;6180682;23;20002;-84
2022/06/10 13:54:53;;;;;;;4.90;2.83;;;;;;;;;;6180157;23;20010;-92
2022/06/10 13:57:30;;;;;;;6.50;2.72;;;;;;;;;;6179840;23;20009;-92
2022/06/10 13:59:58;;;;;;;4.40;2.85;;;;;;;;;;6180022;23;20010;-92
2022/06/10 14:02:27;;;;;;;5.15;2.63;;;;;;;;;;6180454;23;20072;-92
2022/06/10 14:04:54;;;;;;;5.80;2.60;;;;;;;;;;6179798;23;20432;-92
2022/06/10 14:07:28;;;;;;;3.00;2.30;;;;;;;;;;6179912;23;20002;-92
2022/06/10 14:09:56;;;;;;;5.00;2.30;;;;;;;;;;6179727;23;20388;-94
2022/06/10 14:12:24;;;;;;;4.90;2.60;;;;;;;;;;6180103;23;20001;-92
2022/06/10 14:14:51;;;;;;;5.65;2.40;;;;;;;;;;6156686;23;20133;-92
2022/06/10 14:17:21;;;;;;;4.03;2.25;;;;;;;;;;6187707;23;20012;-92
2022/06/10 14:19:50;;;;;;;5.00;2.10;;;;;;;;;;6180209;23;20024;-83
2022/06/10 14:22:19;;;;;;;5.57;2.20;;;;;;;;;;6180012;23;20029;-94
2022/06/10 14:25:05;;;;;;;3.80;2.05;;;;;;;;;;6180088;23;20006;-91
2022/06/10 14:27:32;;;;;;;3.15;1.77;;;;;;;;;;6179781;23;20386;-87
2022/06/10 14:30:00;;;;;;;7.18;2.28;;;;;;;;;;6181239;23;20335;-91
2022/06/10 14:32:32;;;;;;;7.40;2.13;;;;;;;;;;6181957;23;20005;-94
2022/06/10 14:35:21;;;;;;;2.33;1.55;;;;;;;;;;6182212;23;20009;-92
2022/06/10 14:37:47;;;;;;;6.38;2.00;;;;;;;;;;6158310;23;20008;-85
2022/06/10 14:40:19;;;;;;;6.38;2.20;;;;;;;;;;6181706;23;20060;-88
2022/06/10 14:43:06;;;;;;;4.80;1.80;;;;;;;;;;6184675;23;20001;-90
2022/06/10 14:45:34;;;;;;;3.58;2.00;;;;;;;;;;6180503;23;20037;-95
2022/06/10 14:48:06;;;;;;;4.80;2.00;;;;;;;;;;6181391;23;20331;-85
2022/06/10 14:50:35;;;;;;;2.60;1.70;;;;;;;;;;6181654;23;20140;-92
2022/06/10 14:53:01;;;;;;;3.95;1.83;;;;;;;;;;6181757;23;20431;-90
2022/06/10 14:55:31;;;;;;;4.13;1.60;;;;;;;;;;6180247;23;20056;-92
2022/06/10 14:57:59;;;;;;;3.63;1.80;;;;;;;;;;6179854;23;20028;-85
2022/06/10 15:00:27;;;;;;;7.50;1.75;;;;;;;;;;6180851;23;20005;-86
2022/06/10 15:02:54;;;;;;;2.83;1.70;;;;;;;;;;6181280;23;20017;-84
2022/06/10 15:08:05;;;;;;;6.95;1.90;;;;;;;;;;6157156;23;20089;-90
2022/06/10 15:10:37;;;;;;;5.55;1.90;;;;;;;;;;6181340;23;20006;-83
2022/06/10 15:13:03;;;;;;;2.55;1.80;;;;;;;;;;6180901;23;20428;-90
2022/06/10 15:15:29;;;;;;;2.53;1.70;;;;;;;;;;6188337;23;20284;-90
2022/06/10 15:17:55;;;;;;;3.72;1.58;;;;;;;;;;6181599;23;20013;-89
2022/06/10 15:20:21;;;;;;;4.22;2.00;;;;;;;;;;6181521;23;20013;-88